Time;durP1;ratioP1;P1;durP2;ratioP2;P2;SDS_P1;SDS_P2;PMS_P1;PMS_P2;Temp;Humidity;BMP_temperature;BMP_pressure;BME280_temperature;BME280_humidity;BME280_pressure;Samples;Min_cycle;Max_cycle;Signal;HPM_P1;HPM_P2
2022/10/28 00:01:22;;;;;;;5.33;3.73;;;22.30;99.90;;;;;;5042710;28;20453;-46
2022/10/28 00:03:51;;;;;;;6.37;3.87;;;22.30;99.90;;;;;;5046950;28;20462;-45
2022/10/28 00:06:19;;;;;;;5.70;3.60;;;22.30;99.90;;;;;;5040165;28;20462;-43
2022/10/28 00:08:47;;;;;;;7.20;4.17;;;22.30;99.90;;;;;;5047666;28;20492;-43
2022/10/28 00:11:17;;;;;;;4.63;3.70;;;22.30;99.90;;;;;;5046391;28;20462;-46
2022/10/28 00:13:45;;;;;;;4.80;3.10;;;22.30;99.90;;;;;;5038270;28;20478;-44
2022/10/28 00:16:14;;;;;;;4.67;3.47;;;22.30;99.90;;;;;;5033939;28;20556;-43
2022/10/28 00:18:42;;;;;;;5.10;3.60;;;22.30;99.90;;;;;;5046437;28;20823;-43
2022/10/28 00:21:10;;;;;;;6.97;3.60;;;22.20;99.90;;;;;;5044798;28;20457;-43
2022/10/28 00:23:37;;;;;;;5.03;3.57;;;22.30;99.90;;;;;;5047032;28;20457;-43
2022/10/28 00:26:06;;;;;;;5.97;3.70;;;22.30;99.90;;;;;;5046026;28;20453;-44
2022/10/28 00:28:34;;;;;;;5.33;3.30;;;22.20;99.90;;;;;;5044481;28;20460;-44
2022/10/28 00:31:05;;;;;;;4.93;3.23;;;22.20;99.90;;;;;;5040476;28;20476;-43
2022/10/28 00:33:32;;;;;;;5.70;4.40;;;22.20;99.90;;;;;;5037353;28;20538;-43
2022/10/28 00:36:08;;;;;;;4.03;3.37;;;22.20;99.90;;;;;;5050804;28;20472;-43
2022/10/28 00:38:35;;;;;;;6.90;4.00;;;22.20;99.90;;;;;;5042459;28;20497;-42
2022/10/28 00:41:02;;;;;;;5.90;4.00;;;22.20;99.90;;;;;;5043719;28;20473;-44
2022/10/28 00:43:39;;;;;;;5.63;3.10;;;22.20;99.90;;;;;;5051114;28;20458;-46
2022/10/28 00:46:15;;;;;;;5.83;4.27;;;22.10;99.90;;;;;;5039207;28;20457;-46
2022/10/28 00:48:43;;;;;;;3.97;3.57;;;22.20;99.90;;;;;;5042883;28;20484;-44
2022/10/28 00:51:10;;;;;;;7.33;4.30;;;22.10;99.90;;;;;;5036323;28;20466;-44
2022/10/28 00:53:39;;;;;;;4.13;3.73;;;22.10;99.90;;;;;;5043173;28;21008;-43
2022/10/28 00:56:07;;;;;;;6.23;3.63;;;22.10;99.90;;;;;;5041332;28;20829;-44
2022/10/28 00:58:34;;;;;;;5.73;3.60;;;22.10;99.90;;;;;;5045361;28;20507;-43
2022/10/28 01:01:02;;;;;;;5.20;3.43;;;22.10;99.90;;;;;;5037265;28;20916;-44
2022/10/28 01:03:29;;;;;;;4.43;3.80;;;22.10;99.90;;;;;;5040174;28;20830;-42
2022/10/28 01:05:57;;;;;;;5.07;3.27;;;22.10;99.90;;;;;;5041103;28;20462;-44
2022/10/28 01:08:24;;;;;;;5.73;3.50;;;22.10;99.90;;;;;;5049150;28;20976;-44
2022/10/28 01:11:05;;;;;;;4.40;3.30;;;22.00;99.90;;;;;;5045335;28;20465;-44
2022/10/28 01:13:43;;;;;;;4.80;3.23;;;22.00;99.90;;;;;;5040130;28;20483;-44
2022/10/28 01:16:22;;;;;;;4.83;3.10;;;22.00;99.90;;;;;;5040985;28;20473;-41
2022/10/28 01:18:57;;;;;;;4.90;3.57;;;22.00;99.90;;;;;;5034528;28;20857;-44
2022/10/28 01:22:01;;;;;;;4.90;3.30;;;22.00;99.90;;;;;;5041359;28;20860;-44
2022/10/28 01:24:45;;;;;;;6.10;3.67;;;22.00;99.90;;;;;;5039788;28;20465;-43
2022/10/28 01:27:37;;;;;;;5.13;3.53;;;22.00;99.90;;;;;;5043740;28;20535;-41
2022/10/28 01:30:09;;;;;;;4.70;3.73;;;22.00;99.90;;;;;;5035959;28;20957;-42
2022/10/28 01:32:49;;;;;;;3.80;3.03;;;22.00;99.90;;;;;;5043672;28;20477;-44
2022/10/28 01:35:22;;;;;;;5.40;3.73;;;21.90;99.90;;;;;;5041960;28;20462;-44
2022/10/28 01:38:03;;;;;;;5.80;3.80;;;21.90;99.90;;;;;;5043691;28;20454;-45
2022/10/28 01:40:34;;;;;;;3.70;3.30;;;21.90;99.90;;;;;;5042178;28;20454;-45
2022/10/28 01:43:11;;;;;;;4.93;3.17;;;21.90;99.90;;;;;;5037811;28;20538;-43
2022/10/28 01:45:46;;;;;;;4.50;3.30;;;21.90;99.90;;;;;;5042071;28;20476;-45
2022/10/28 01:48:19;;;;;;;5.57;4.00;;;21.90;99.90;;;;;;5037393;28;20503;-44
2022/10/28 01:50:51;;;;;;;3.67;3.17;;;21.90;99.90;;;;;;5045740;28;20457;-43
2022/10/28 01:53:22;;;;;;;4.77;3.53;;;21.90;99.90;;;;;;5044909;28;20477;-42
2022/10/28 01:55:53;;;;;;;3.77;3.40;;;21.90;99.90;;;;;;5043215;28;20821;-45
2022/10/28 01:58:25;;;;;;;4.20;3.80;;;21.80;99.90;;;;;;5039252;28;20464;-44
2022/10/28 02:00:52;;;;;;;5.20;3.37;;;21.80;99.90;;;;;;5038904;28;20480;-46
2022/10/28 02:03:20;;;;;;;3.90;3.40;;;21.80;99.90;;;;;;5040239;28;20465;-43
2022/10/28 02:05:48;;;;;;;3.93;3.20;;;21.80;99.90;;;;;;5044051;28;20462;-42
2022/10/28 02:08:43;;;;;;;4.00;3.47;;;21.80;99.90;;;;;;5046086;28;20453;-43
2022/10/28 02:11:30;;;;;;;3.27;2.63;;;21.80;99.90;;;;;;5039397;28;20868;-46
2022/10/28 02:14:05;;;;;;;4.17;3.80;;;21.80;99.90;;;;;;5045238;28;20488;-43
2022/10/28 02:16:43;;;;;;;4.50;3.13;;;21.80;99.90;;;;;;5037451;28;20488;-43
2022/10/28 02:19:18;;;;;;;5.10;3.20;;;21.80;99.90;;;;;;5045271;28;20466;-45
2022/10/28 02:21:56;;;;;;;6.20;3.13;;;21.70;99.90;;;;;;5038235;28;20468;-44
2022/10/28 02:24:31;;;;;;;3.70;2.87;;;21.70;99.90;;;;;;5038637;28;20485;-44
2022/10/28 02:27:05;;;;;;;5.33;3.67;;;21.70;99.90;;;;;;5042952;28;20476;-46
2022/10/28 02:29:37;;;;;;;3.27;2.60;;;21.70;99.90;;;;;;5041399;28;20474;-43
2022/10/28 02:32:08;;;;;;;3.40;3.07;;;21.70;99.90;;;;;;5040988;28;20465;-42
2022/10/28 02:34:39;;;;;;;4.13;3.40;;;21.70;99.90;;;;;;5040466;28;20476;-44
2022/10/28 02:37:15;;;;;;;5.17;3.63;;;21.70;99.90;;;;;;5040613;28;20196;-43
2022/10/28 02:39:44;;;;;;;3.40;2.87;;;21.70;99.90;;;;;;5039812;28;20480;-43
2022/10/28 02:42:13;;;;;;;4.93;3.67;;;21.70;99.90;;;;;;5043707;28;20462;-44
2022/10/28 02:44:45;;;;;;;4.50;3.00;;;21.70;99.90;;;;;;5039657;28;20474;-43
2022/10/28 02:47:17;;;;;;;4.13;3.25;;;21.70;99.90;;;;;;5038545;28;20972;-43
2022/10/28 02:49:49;;;;;;;4.63;3.10;;;21.60;99.90;;;;;;5042499;28;20207;-43
2022/10/28 02:52:19;;;;;;;4.33;2.90;;;21.60;99.90;;;;;;5043879;28;20466;-44
2022/10/28 02:54:53;;;;;;;3.95;2.88;;;21.60;99.90;;;;;;5043332;28;20461;-43
2022/10/28 02:57:22;;;;;;;3.50;3.20;;;21.60;99.90;;;;;;5040197;28;20199;-44
2022/10/28 02:59:52;;;;;;;4.32;3.13;;;21.60;99.90;;;;;;5045603;28;20546;-43
2022/10/28 03:02:19;;;;;;;4.73;3.60;;;21.60;99.90;;;;;;5035118;28;20558;-43
2022/10/28 03:04:47;;;;;;;2.97;2.20;;;21.60;99.90;;;;;;5044729;28;20465;-43
2022/10/28 03:07:14;;;;;;;3.57;2.67;;;21.60;99.90;;;;;;5035961;28;20462;-43
2022/10/28 03:09:40;;;;;;;4.20;3.13;;;21.60;99.90;;;;;;5037962;28;20516;-42
2022/10/28 03:12:07;;;;;;;3.70;3.00;;;21.50;99.90;;;;;;5037380;28;20470;-42
2022/10/28 03:14:34;;;;;;;4.27;3.33;;;21.50;99.90;;;;;;5037204;28;20481;-45
2022/10/28 03:17:01;;;;;;;4.57;2.80;;;21.50;99.90;;;;;;5037129;28;20480;-43
2022/10/28 03:19:27;;;;;;;4.03;3.13;;;21.60;99.90;;;;;;5041207;28;20464;-43
2022/10/28 03:21:56;;;;;;;4.30;3.37;;;21.50;99.90;;;;;;5036966;28;20991;-44
2022/10/28 03:24:22;;;;;;;4.65;3.35;;;21.50;99.90;;;;;;5040130;28;20469;-43
2022/10/28 03:26:49;;;;;;;3.60;2.80;;;21.50;99.90;;;;;;5038111;28;20477;-43
2022/10/28 03:29:16;;;;;;;3.87;3.00;;;21.50;99.90;;;;;;5045143;28;20484;-42
2022/10/28 03:31:42;;;;;;;3.83;3.00;;;21.50;99.90;;;;;;5036692;28;20875;-43
2022/10/28 03:34:09;;;;;;;3.67;2.60;;;21.50;99.90;;;;;;5037258;28;20477;-45
2022/10/28 03:36:36;;;;;;;3.43;2.93;;;21.50;99.90;;;;;;5047773;28;20700;-42
2022/10/28 03:39:04;;;;;;;3.30;2.83;;;21.50;99.90;;;;;;5043133;28;20460;-43
2022/10/28 03:41:31;;;;;;;4.25;3.85;;;21.50;99.90;;;;;;5036539;28;21075;-44
2022/10/28 03:43:58;;;;;;;3.67;2.70;;;21.40;99.90;;;;;;5038356;28;20678;-44
2022/10/28 03:46:24;;;;;;;3.27;2.70;;;21.40;99.90;;;;;;5032725;28;20458;-41
2022/10/28 03:48:51;;;;;;;5.07;3.27;;;21.60;99.90;;;;;;5039761;28;20448;-44
2022/10/28 03:51:18;;;;;;;4.20;3.23;;;22.00;99.90;;;;;;5039378;28;20462;-44
2022/10/28 03:53:45;;;;;;;3.23;2.40;;;22.20;99.90;;;;;;5046233;28;20489;-44
2022/10/28 03:56:13;;;;;;;4.03;2.93;;;22.20;99.90;;;;;;5040731;28;20473;-43
2022/10/28 03:58:39;;;;;;;4.50;3.10;;;22.30;99.90;;;;;;5047600;28;20469;-44
2022/10/28 04:01:06;;;;;;;5.33;3.07;;;22.40;99.90;;;;;;5037026;28;20465;-44
2022/10/28 04:03:33;;;;;;;2.90;2.50;;;22.50;99.90;;;;;;5040031;28;20458;-40
2022/10/28 04:06:00;;;;;;;3.30;2.53;;;22.60;99.90;;;;;;5043883;28;20451;-43
2022/10/28 04:08:26;;;;;;;3.20;2.50;;;22.60;99.90;;;;;;5048355;28;20458;-42
2022/10/28 04:10:53;;;;;;;3.60;2.77;;;22.60;99.90;;;;;;5041311;28;20453;-44
2022/10/28 04:13:21;;;;;;;5.13;3.63;;;22.70;99.90;;;;;;5038204;28;21003;-44
2022/10/28 04:15:48;;;;;;;2.80;2.30;;;22.70;99.90;;;;;;5044331;28;20461;-44
2022/10/28 04:18:15;;;;;;;4.20;2.77;;;22.70;99.90;;;;;;5046242;28;20446;-44
2022/10/28 04:20:41;;;;;;;2.10;1.90;;;22.70;99.90;;;;;;5039412;28;20465;-43
2022/10/28 04:23:11;;;;;;;3.10;2.50;;;22.70;99.90;;;;;;5042859;28;20964;-45
2022/10/28 04:25:37;;;;;;;3.77;2.60;;;22.70;99.90;;;;;;5036381;28;20461;-42
2022/10/28 04:28:04;;;;;;;3.60;2.20;;;22.70;99.90;;;;;;5045071;28;20462;-42
2022/10/28 04:30:32;;;;;;;3.17;2.30;;;22.60;99.90;;;;;;5034409;28;20496;-42
2022/10/28 04:32:59;;;;;;;3.00;2.70;;;22.60;99.90;;;;;;5041195;28;20972;-40
2022/10/28 04:35:26;;;;;;;2.97;2.73;;;22.60;99.90;;;;;;5037524;28;20450;-41
2022/10/28 04:37:52;;;;;;;3.03;2.40;;;22.60;99.90;;;;;;5042315;28;20453;-45
2022/10/28 04:40:19;;;;;;;3.30;3.00;;;22.50;99.90;;;;;;5044969;28;20523;-43
2022/10/28 04:42:46;;;;;;;2.83;2.50;;;22.50;99.90;;;;;;5045227;28;20960;-43
2022/10/28 04:45:14;;;;;;;3.83;2.40;;;22.50;99.90;;;;;;5039775;28;20457;-45
2022/10/28 04:47:42;;;;;;;3.37;2.30;;;22.50;99.90;;;;;;5042070;28;20473;-43
2022/10/28 04:50:09;;;;;;;3.27;2.97;;;22.50;99.90;;;;;;5045881;28;20877;-42
2022/10/28 04:52:36;;;;;;;2.77;2.00;;;22.50;99.90;;;;;;5042517;28;20887;-46
2022/10/28 04:55:02;;;;;;;3.00;2.50;;;22.50;99.90;;;;;;5041322;28;20484;-43
2022/10/28 04:57:29;;;;;;;3.17;2.40;;;22.40;99.90;;;;;;5044101;28;20953;-43
2022/10/28 04:59:56;;;;;;;2.77;1.90;;;22.50;99.90;;;;;;5042825;28;20457;-45
2022/10/28 05:02:23;;;;;;;3.40;2.13;;;22.40;99.90;;;;;;5036784;28;20462;-43
2022/10/28 05:04:51;;;;;;;2.60;2.20;;;22.50;99.90;;;;;;5039912;28;20560;-42
2022/10/28 05:07:17;;;;;;;2.60;2.20;;;22.40;99.90;;;;;;5043154;28;20462;-42
2022/10/28 05:09:44;;;;;;;2.47;2.10;;;22.40;99.90;;;;;;5045892;28;20457;-46
2022/10/28 05:12:11;;;;;;;2.97;2.30;;;22.40;99.90;;;;;;5036077;28;20458;-46
2022/10/28 05:14:37;;;;;;;3.30;2.00;;;22.40;99.90;;;;;;5042293;28;20844;-42
2022/10/28 05:17:04;;;;;;;2.60;2.10;;;22.50;99.90;;;;;;5036806;28;20478;-43
2022/10/28 05:19:31;;;;;;;2.13;1.73;;;22.50;99.90;;;;;;5046385;28;21053;-46
2022/10/28 05:21:59;;;;;;;2.60;2.00;;;22.50;99.90;;;;;;5046200;28;20476;-42
2022/10/28 05:24:25;;;;;;;2.10;1.90;;;22.50;99.90;;;;;;5033562;28;20466;-43
2022/10/28 05:26:52;;;;;;;2.27;1.83;;;22.60;99.90;;;;;;5043373;28;20466;-44
2022/10/28 05:29:19;;;;;;;2.70;1.70;;;22.60;99.90;;;;;;5039999;28;20828;-43
2022/10/28 05:31:46;;;;;;;2.80;1.87;;;22.60;99.90;;;;;;5043611;28;21125;-41
2022/10/28 05:34:12;;;;;;;2.73;2.30;;;22.60;99.90;;;;;;5038613;28;20483;-42
2022/10/28 05:36:39;;;;;;;4.70;2.00;;;22.70;99.90;;;;;;5042672;28;20461;-42
2022/10/28 05:39:07;;;;;;;2.40;2.20;;;22.70;99.90;;;;;;5043662;28;20458;-42
2022/10/28 05:41:34;;;;;;;2.30;1.87;;;22.70;99.90;;;;;;5045093;28;20832;-41
2022/10/28 05:44:01;;;;;;;2.60;2.40;;;22.70;99.90;;;;;;5042385;28;20472;-42
2022/10/28 05:46:27;;;;;;;2.30;2.13;;;22.70;99.90;;;;;;5040084;28;20956;-42
2022/10/28 05:48:54;;;;;;;2.87;2.60;;;22.70;99.90;;;;;;5037634;28;20454;-41
2022/10/28 05:51:21;;;;;;;2.80;2.07;;;22.80;99.90;;;;;;5033723;28;20454;-43
2022/10/28 05:53:49;;;;;;;3.13;2.20;;;22.80;99.90;;;;;;5040875;28;20983;-44
2022/10/28 05:56:17;;;;;;;3.30;3.00;;;22.80;99.90;;;;;;5044283;28;20942;-42
2022/10/28 05:58:44;;;;;;;3.20;2.30;;;22.80;99.90;;;;;;5041701;28;20797;-42
2022/10/28 06:01:11;;;;;;;2.40;2.00;;;22.80;99.90;;;;;;5033669;28;20526;-38
2022/10/28 06:03:38;;;;;;;2.13;1.93;;;22.80;99.90;;;;;;5042420;28;20457;-41
2022/10/28 06:06:05;;;;;;;3.03;1.87;;;22.80;99.90;;;;;;5040658;28;20465;-40
2022/10/28 06:08:31;;;;;;;1.83;1.50;;;22.80;99.90;;;;;;5041509;28;20472;-41
2022/10/28 06:10:58;;;;;;;2.23;2.03;;;22.80;99.90;;;;;;5043926;28;20453;-42
2022/10/28 06:13:26;;;;;;;2.47;1.67;;;22.80;99.90;;;;;;5033492;28;20462;-41
2022/10/28 06:15:53;;;;;;;2.00;1.77;;;22.80;99.90;;;;;;5041759;28;20459;-41
2022/10/28 06:18:20;;;;;;;2.30;1.80;;;22.80;99.90;;;;;;5040328;28;20458;-40
2022/10/28 06:20:52;;;;;;;2.23;2.03;;;22.90;99.90;;;;;;5042268;28;20480;-40
2022/10/28 06:23:19;;;;;;;3.60;2.23;;;22.90;99.90;;;;;;5044867;28;20486;-40
2022/10/28 06:25:46;;;;;;;1.77;1.67;;;22.90;99.90;;;;;;5038298;28;20462;-41
2022/10/28 06:28:13;;;;;;;2.73;2.33;;;22.90;99.90;;;;;;5047788;28;20469;-41
2022/10/28 06:30:41;;;;;;;2.10;1.90;;;23.00;99.90;;;;;;5037998;28;20461;-41
2022/10/28 06:33:07;;;;;;;2.50;1.80;;;23.00;99.90;;;;;;5043936;28;20454;-42
2022/10/28 06:35:34;;;;;;;3.00;1.93;;;23.00;99.90;;;;;;5034253;28;20489;-41
2022/10/28 06:38:01;;;;;;;2.17;1.97;;;23.00;99.90;;;;;;5037916;28;20454;-39
2022/10/28 06:40:28;;;;;;;2.03;1.60;;;23.00;99.90;;;;;;5041300;28;20480;-40
2022/10/28 06:42:58;;;;;;;2.47;1.90;;;23.10;99.90;;;;;;5037835;28;20465;-41
2022/10/28 06:45:24;;;;;;;3.60;2.03;;;23.10;99.90;;;;;;5039986;28;21097;-42
2022/10/28 06:47:56;;;;;;;5.83;2.13;;;23.10;99.90;;;;;;5037368;28;20457;-40
2022/10/28 06:50:23;;;;;;;2.37;2.17;;;23.10;99.90;;;;;;5036683;28;20932;-42
2022/10/28 06:52:50;;;;;;;2.43;2.23;;;23.20;99.90;;;;;;5051926;28;20794;-40
2022/10/28 06:55:17;;;;;;;2.00;1.77;;;23.10;99.90;;;;;;5039760;28;20477;-41
2022/10/28 06:57:44;;;;;;;3.50;1.90;;;23.10;99.90;;;;;;5043323;28;20503;-41
2022/10/28 07:00:12;;;;;;;3.43;2.07;;;23.10;99.90;;;;;;5038707;28;20449;-41
2022/10/28 07:02:38;;;;;;;3.23;2.17;;;23.20;99.90;;;;;;5038578;28;20461;-41
2022/10/28 07:05:07;;;;;;;3.83;2.67;;;23.10;99.90;;;;;;5038764;28;20538;-41
2022/10/28 07:07:36;;;;;;;3.73;2.00;;;23.10;99.90;;;;;;5051661;28;20477;-42
2022/10/28 07:10:03;;;;;;;3.60;2.10;;;23.10;99.90;;;;;;5036361;28;20891;-41
2022/10/28 07:12:29;;;;;;;2.60;2.03;;;23.20;99.90;;;;;;5032546;28;20481;-41
2022/10/28 07:14:56;;;;;;;6.60;2.30;;;23.10;99.90;;;;;;5037117;28;20822;-41
2022/10/28 07:17:23;;;;;;;6.30;2.80;;;23.10;99.90;;;;;;5032917;28;20846;-41
2022/10/28 07:19:50;;;;;;;2.63;2.33;;;23.10;99.90;;;;;;5034548;28;20537;-41
2022/10/28 07:22:18;;;;;;;5.33;2.30;;;23.10;99.90;;;;;;5035782;28;20461;-42
2022/10/28 07:24:45;;;;;;;6.73;2.20;;;23.10;99.90;;;;;;5041575;28;20472;-42
2022/10/28 07:27:12;;;;;;;3.50;2.50;;;23.10;99.90;;;;;;5033851;28;20461;-42
2022/10/28 07:29:38;;;;;;;3.93;2.10;;;23.20;99.90;;;;;;5043522;28;20481;-42
2022/10/28 07:32:05;;;;;;;13.37;2.80;;;23.10;99.90;;;;;;5036576;28;20454;-41
2022/10/28 07:34:32;;;;;;;5.87;3.47;;;23.10;99.90;;;;;;5048506;28;20481;-39
2022/10/28 07:36:58;;;;;;;7.83;3.27;;;22.80;99.90;;;;;;5045221;28;20461;-32
2022/10/28 07:39:26;;;;;;;5.47;4.00;;;22.00;99.90;;;;;;5042967;28;20449;-32
2022/10/28 07:41:53;;;;;;;11.87;3.90;;;21.00;99.90;;;;;;5044586;28;20527;-32
2022/10/28 07:44:20;;;;;;;9.93;4.17;;;20.80;99.90;;;;;;5041235;28;20466;-34
2022/10/28 07:46:47;;;;;;;15.73;4.83;;;20.50;99.90;;;;;;5043542;28;20457;-33
2022/10/28 07:49:13;;;;;;;7.27;3.70;;;20.40;99.90;;;;;;5044733;28;20454;-32
2022/10/28 07:51:40;;;;;;;12.60;3.73;;;20.50;99.90;;;;;;5044399;28;20461;-36
2022/10/28 07:54:07;;;;;;;6.67;4.63;;;20.70;99.90;;;;;;5043239;28;20485;-33
2022/10/28 07:56:35;;;;;;;10.00;4.43;;;20.70;99.90;;;;;;5048771;28;20464;-32
2022/10/28 07:59:01;;;;;;;14.50;4.33;;;21.00;99.90;;;;;;5037472;28;20477;-38
2022/10/28 08:01:28;;;;;;;8.43;3.80;;;20.80;99.90;;;;;;5035106;28;20970;-34
2022/10/28 08:03:55;;;;;;;16.43;5.30;;;20.70;99.90;;;;;;5043962;28;20458;-35
2022/10/28 08:06:21;;;;;;;17.10;4.50;;;20.90;99.90;;;;;;5044532;28;20464;-34
2022/10/28 08:08:53;;;;;;;9.57;4.33;;;20.90;99.90;;;;;;5041811;28;20446;-37
2022/10/28 08:11:22;;;;;;;14.73;4.43;;;21.10;99.90;;;;;;5038530;28;20455;-33
2022/10/28 08:13:51;;;;;;;5.23;3.37;;;21.30;99.90;;;;;;5045488;28;20473;-36
2022/10/28 08:16:18;;;;;;;8.37;4.20;;;21.50;99.90;;;;;;5042918;28;20493;-33
2022/10/28 08:18:45;;;;;;;8.97;4.50;;;21.70;99.90;;;;;;5050716;28;20461;-33
2022/10/28 08:21:14;;;;;;;6.13;3.20;;;21.50;99.90;;;;;;5041569;28;20454;-34
2022/10/28 08:23:45;;;;;;;8.47;3.63;;;21.50;99.90;;;;;;5050248;28;20464;-39
2022/10/28 08:26:13;;;;;;;13.60;5.20;;;21.50;99.90;;;;;;5049608;28;20461;-34
2022/10/28 08:28:40;;;;;;;10.80;4.30;;;21.60;99.90;;;;;;5048967;28;20554;-35
2022/10/28 08:31:08;;;;;;;18.50;5.33;;;21.80;99.90;;;;;;5041692;28;20457;-37
2022/10/28 08:33:36;;;;;;;10.10;3.67;;;21.90;99.90;;;;;;5042405;28;20449;-33
2022/10/28 08:36:03;;;;;;;7.13;3.90;;;21.70;99.90;;;;;;5048663;28;20566;-33
2022/10/28 08:38:30;;;;;;;5.67;3.63;;;21.60;99.90;;;;;;5054184;28;20929;-34
2022/10/28 08:41:07;;;;;;;10.33;4.40;;;21.60;99.90;;;;;;5041348;28;20834;-36
2022/10/28 08:43:46;;;;;;;11.70;5.30;;;21.40;99.90;;;;;;5047686;28;20452;-32
2022/10/28 08:46:25;;;;;;;11.30;3.70;;;21.40;99.90;;;;;;5039293;28;20473;-36
2022/10/28 08:48:52;;;;;;;12.30;4.40;;;21.60;99.90;;;;;;5034664;28;20456;-31
2022/10/28 08:51:25;;;;;;;11.53;3.53;;;21.30;99.90;;;;;;5048836;28;20461;-32
2022/10/28 08:53:55;;;;;;;6.50;3.90;;;21.30;99.90;;;;;;5034820;28;20962;-33
2022/10/28 08:56:30;;;;;;;10.90;4.60;;;21.40;99.90;;;;;;5044810;28;20996;-32
2022/10/28 08:58:59;;;;;;;8.23;4.67;;;21.60;99.90;;;;;;5052031;28;20446;-32
2022/10/28 09:01:37;;;;;;;7.20;3.73;;;21.60;99.90;;;;;;5036500;28;20470;-31
2022/10/28 09:04:10;;;;;;;8.77;4.27;;;21.80;99.90;;;;;;5049680;28;20460;-37
2022/10/28 09:06:37;;;;;;;7.53;3.83;;;21.80;99.90;;;;;;5045311;28;20458;-33
2022/10/28 09:09:04;;;;;;;5.90;3.47;;;22.00;99.90;;;;;;5047848;28;20446;-38
2022/10/28 09:11:45;;;;;;;13.80;4.03;;;22.00;99.90;;;;;;5047359;28;21756;-33
2022/10/28 09:14:33;;;;;;;9.10;4.40;;;22.10;99.90;;;;;;5039907;28;20507;-35
2022/10/28 09:17:11;;;;;;;10.27;3.30;;;22.20;99.90;;;;;;5045765;28;20477;-36
2022/10/28 09:19:45;;;;;;;14.47;4.30;;;22.30;99.90;;;;;;5039208;28;20456;-38
2022/10/28 09:22:24;;;;;;;18.13;3.60;;;22.40;99.90;;;;;;5039135;28;20461;-40
2022/10/28 09:24:55;;;;;;;11.40;3.77;;;22.30;99.90;;;;;;5042996;28;20465;-36
2022/10/28 09:27:51;;;;;;;8.90;4.63;;;22.50;99.90;;;;;;5049424;28;20960;-35
2022/10/28 09:30:30;;;;;;;8.20;3.43;;;22.40;99.90;;;;;;5038788;28;20465;-37
2022/10/28 09:33:08;;;;;;;17.37;5.43;;;22.50;99.90;;;;;;5042113;28;20453;-37
2022/10/28 09:35:41;;;;;;;7.50;3.33;;;22.70;99.90;;;;;;5046787;28;20481;-35
2022/10/28 09:38:16;;;;;;;9.10;4.17;;;22.60;99.90;;;;;;5040820;28;20445;-36
2022/10/28 09:40:49;;;;;;;4.13;3.43;;;22.70;99.90;;;;;;5046295;28;20503;-46
2022/10/28 09:43:24;;;;;;;7.37;3.10;;;22.70;99.90;;;;;;5038100;28;20462;-45
2022/10/28 09:45:54;;;;;;;5.40;3.17;;;22.70;99.90;;;;;;5049885;28;20979;-46
2022/10/28 09:48:25;;;;;;;7.20;3.13;;;22.70;99.90;;;;;;5044660;28;20497;-45
2022/10/28 09:50:54;;;;;;;7.60;2.97;;;22.70;99.90;;;;;;5048043;28;20461;-44
2022/10/28 09:53:29;;;;;;;4.00;3.60;;;22.90;99.90;;;;;;5044992;28;20450;-45
2022/10/28 09:55:56;;;;;;;4.40;3.00;;;23.00;99.90;;;;;;5040417;28;20474;-45
2022/10/28 09:58:23;;;;;;;6.87;3.43;;;23.10;99.90;;;;;;5037995;28;20576;-45
2022/10/28 10:00:50;;;;;;;5.80;3.60;;;23.10;99.90;;;;;;5046944;28;20461;-45
2022/10/28 10:03:17;;;;;;;8.53;3.60;;;23.20;99.90;;;;;;5049469;28;20453;-45
2022/10/28 10:05:48;;;;;;;4.80;2.60;;;23.20;99.90;;;;;;5048953;28;20837;-45
2022/10/28 10:08:18;;;;;;;5.40;2.50;;;23.20;99.90;;;;;;5051256;28;20492;-45
2022/10/28 10:10:49;;;;;;;6.33;2.73;;;23.30;99.90;;;;;;5046503;28;20515;-45
2022/10/28 10:13:19;;;;;;;8.70;4.60;;;23.30;99.90;;;;;;5046326;28;21054;-46
2022/10/28 10:15:51;;;;;;;4.73;3.23;;;23.40;99.90;;;;;;5042761;28;20477;-45
2022/10/28 10:18:23;;;;;;;3.73;2.77;;;23.30;99.90;;;;;;5045954;28;20465;-45
2022/10/28 10:20:54;;;;;;;6.10;3.03;;;23.40;99.90;;;;;;5048714;28;20515;-45
2022/10/28 10:23:28;;;;;;;4.47;3.33;;;23.30;99.90;;;;;;5048561;28;20442;-44
2022/10/28 10:25:58;;;;;;;2.80;2.07;;;23.30;99.90;;;;;;5057888;28;21021;-45
2022/10/28 10:28:26;;;;;;;5.83;3.00;;;23.40;99.90;;;;;;5047907;28;20473;-47
2022/10/28 10:30:55;;;;;;;7.10;2.90;;;23.30;99.90;;;;;;5046421;28;20469;-48
2022/10/28 10:33:25;;;;;;;3.97;3.17;;;23.30;99.90;;;;;;5049857;28;20847;-47
2022/10/28 10:36:01;;;;;;;5.37;3.00;;;23.30;99.90;;;;;;5043651;28;20514;-43
2022/10/28 10:38:29;;;;;;;4.13;2.53;;;23.30;99.90;;;;;;5049845;28;20471;-42
2022/10/28 10:40:56;;;;;;;5.73;3.33;;;23.30;99.90;;;;;;5037130;28;20964;-41
2022/10/28 10:43:31;;;;;;;4.70;2.57;;;23.30;99.90;;;;;;5045082;28;20964;-40
2022/10/28 10:46:04;;;;;;;5.40;3.23;;;23.40;99.90;;;;;;5047586;28;20468;-42
2022/10/28 10:48:34;;;;;;;4.57;2.37;;;23.40;99.90;;;;;;5041613;28;20469;-43
2022/10/28 10:51:08;;;;;;;4.30;2.80;;;23.40;99.90;;;;;;5040156;28;20525;-41
2022/10/28 10:53:36;;;;;;;4.47;3.33;;;23.40;99.90;;;;;;5034805;28;20461;-42
2022/10/28 10:56:05;;;;;;;4.30;2.10;;;23.40;99.90;;;;;;5045566;28;20775;-41
2022/10/28 10:58:34;;;;;;;2.73;2.17;;;23.40;99.90;;;;;;5035781;28;20461;-42
2022/10/28 11:01:04;;;;;;;4.93;3.07;;;23.40;99.90;;;;;;5046228;28;20454;-41
2022/10/28 11:03:33;;;;;;;3.30;2.10;;;23.40;99.90;;;;;;5033320;28;20462;-42
2022/10/28 11:06:01;;;;;;;3.57;2.20;;;23.40;99.90;;;;;;5046678;28;20434;-42
2022/10/28 11:08:36;;;;;;;3.00;2.50;;;23.40;99.90;;;;;;5050256;28;20495;-42
2022/10/28 11:11:05;;;;;;;2.57;2.10;;;23.40;99.90;;;;;;5048773;28;20461;-42
2022/10/28 11:13:34;;;;;;;2.73;2.50;;;23.40;99.90;;;;;;5045654;28;20472;-43
2022/10/28 11:16:02;;;;;;;3.60;2.40;;;23.40;99.90;;;;;;5048000;28;20480;-41
2022/10/28 11:18:40;;;;;;;7.13;3.07;;;23.40;99.90;;;;;;5044191;28;20466;-43
2022/10/28 11:21:14;;;;;;;6.40;3.40;;;23.40;99.90;;;;;;5041906;28;20458;-45
2022/10/28 11:23:52;;;;;;;4.20;2.33;;;23.50;99.90;;;;;;5041945;28;20460;-43
2022/10/28 11:26:21;;;;;;;5.80;3.23;;;23.50;99.90;;;;;;5041656;28;20462;-42
2022/10/28 11:29:04;;;;;;;4.00;2.67;;;23.50;99.90;;;;;;5040370;28;20461;-42
2022/10/28 11:31:51;;;;;;;5.37;2.83;;;23.50;99.90;;;;;;5034991;28;21228;-40
2022/10/28 11:34:35;;;;;;;8.70;2.70;;;23.40;99.90;;;;;;5035643;28;20449;-41
2022/10/28 11:37:11;;;;;;;6.33;2.83;;;23.40;99.90;;;;;;5034469;28;20474;-42
2022/10/28 11:39:48;;;;;;;6.20;3.00;;;23.40;99.90;;;;;;5036833;28;20472;-42
2022/10/28 11:42:23;;;;;;;6.53;2.70;;;23.40;99.90;;;;;;5039607;28;20471;-43
2022/10/28 11:44:53;;;;;;;4.97;3.57;;;23.30;99.90;;;;;;5048024;28;20461;-43
2022/10/28 11:47:37;;;;;;;4.53;2.57;;;23.30;99.90;;;;;;5036567;28;20467;-43
2022/10/28 11:50:15;;;;;;;3.80;3.20;;;23.30;99.90;;;;;;5042211;28;20453;-43
2022/10/28 11:52:56;;;;;;;6.57;3.40;;;23.30;99.90;;;;;;5033528;28;20454;-43
2022/10/28 11:55:32;;;;;;;4.50;2.27;;;23.30;99.90;;;;;;5040928;28;20480;-43
2022/10/28 11:58:07;;;;;;;4.70;2.73;;;23.30;99.90;;;;;;5036818;28;20833;-43
2022/10/28 12:00:45;;;;;;;6.00;2.93;;;23.20;99.90;;;;;;5043526;28;20473;-42
2022/10/28 12:03:29;;;;;;;4.27;2.53;;;23.20;99.90;;;;;;5041398;28;20458;-42
2022/10/28 12:06:08;;;;;;;6.00;2.60;;;23.20;99.90;;;;;;5044805;28;20465;-43
2022/10/28 12:08:48;;;;;;;3.10;2.57;;;23.20;99.90;;;;;;5048819;28;20457;-42
2022/10/28 12:11:27;;;;;;;4.80;2.87;;;23.20;99.90;;;;;;5045086;28;20462;-43
2022/10/28 12:14:03;;;;;;;6.87;2.70;;;23.20;99.90;;;;;;5048623;28;20472;-42
2022/10/28 12:16:36;;;;;;;4.77;3.07;;;23.20;99.90;;;;;;5050518;28;20489;-43
2022/10/28 12:19:09;;;;;;;4.77;2.77;;;23.20;99.90;;;;;;5045726;28;20468;-41
2022/10/28 12:21:39;;;;;;;6.07;2.63;;;23.20;99.90;;;;;;5050363;28;20438;-43
2022/10/28 12:24:13;;;;;;;4.73;3.10;;;23.20;99.90;;;;;;5050828;28;20622;-44
2022/10/28 12:26:43;;;;;;;4.40;2.50;;;23.10;99.90;;;;;;5042387;28;20968;-40
2022/10/28 12:29:21;;;;;;;4.60;2.63;;;23.10;99.90;;;;;;5046102;28;20460;-43
2022/10/28 12:31:51;;;;;;;5.53;2.73;;;23.10;99.90;;;;;;5044084;28;20440;-43
2022/10/28 12:34:24;;;;;;;3.10;2.73;;;23.10;99.90;;;;;;5047295;28;20457;-43
2022/10/28 12:36:54;;;;;;;4.20;2.87;;;23.10;99.90;;;;;;5045075;28;20480;-43
2022/10/28 12:39:25;;;;;;;3.37;2.70;;;23.10;99.90;;;;;;5045816;28;20457;-43
2022/10/28 12:41:59;;;;;;;4.20;3.00;;;23.10;99.90;;;;;;5044521;28;20451;-43
2022/10/28 12:44:27;;;;;;;3.37;2.77;;;23.10;99.90;;;;;;5040857;28;20450;-43
2022/10/28 12:47:06;;;;;;;3.80;2.37;;;23.00;99.90;;;;;;5050628;28;20498;-43
2022/10/28 12:49:44;;;;;;;4.13;2.43;;;23.00;99.90;;;;;;5048171;28;20468;-43
2022/10/28 12:52:21;;;;;;;3.10;2.80;;;23.10;99.90;;;;;;5050684;28;20437;-43
2022/10/28 12:54:56;;;;;;;4.37;2.50;;;23.00;99.90;;;;;;5047401;28;20498;-42
2022/10/28 12:57:25;;;;;;;5.93;2.70;;;23.00;99.90;;;;;;5040007;28;20488;-42
2022/10/28 12:59:56;;;;;;;5.80;2.80;;;23.00;99.90;;;;;;5040214;28;20847;-43
2022/10/28 13:02:30;;;;;;;3.40;2.50;;;23.00;99.90;;;;;;5054006;28;20955;-43